Time;durP1;ratioP1;P1;durP2;ratioP2;P2;SDS_P1;SDS_P2;PMS_P1;PMS_P2;Temp;Humidity;BMP_temperature;BMP_pressure;BME280_temperature;BME280_humidity;BME280_pressure;Samples;Min_cycle;Max_cycle;Signal;HPM_P1;HPM_P2
2021/08/07 00:00:35;;;;;;;;;;;;;;;23.02;61.71;98888.44;2083900;28;19920;-41
2021/08/07 00:01:36;;;;;;;;;;;;;;;23.01;61.68;98887.63;2079615;28;19918;-42
2021/08/07 00:02:36;;;;;;;;;;;;;;;23.01;61.62;98890.34;2083529;28;20019;-43
2021/08/07 00:03:37;;;;;;;;;;;;;;;23.01;61.79;98892.28;2084320;28;19920;-43
2021/08/07 00:04:37;;;;;;;;;;;;;;;23.01;61.77;98886.78;2075497;28;20010;-42
2021/08/07 00:05:38;;;;;;;;;;;;;;;23.00;61.64;98888.66;2084784;28;19928;-42
2021/08/07 00:06:38;;;;;;;;;;;;;;;23.01;61.88;98886.78;2086760;28;19935;-43
2021/08/07 00:07:38;;;;;;;;;;;;;;;23.01;61.71;98884.03;2080736;28;20019;-43
2021/08/07 00:08:39;;;;;;;;;;;;;;;23.01;61.73;98887.63;2086622;28;19924;-43
2021/08/07 00:09:39;;;;;;;;;;;;;;;23.00;61.76;98885.91;2084940;28;19920;-43
2021/08/07 00:10:39;;;;;;;;;;;;;;;23.00;61.63;98879.56;2084475;28;20069;-44
2021/08/07 00:11:40;;;;;;;;;;;;;;;23.00;61.60;98891.41;2089955;28;19916;-43
2021/08/07 00:12:40;;;;;;;;;;;;;;;23.00;61.79;98885.91;2084116;28;19963;-43
2021/08/07 00:13:40;;;;;;;;;;;;;;;23.00;61.77;98885.91;2084454;28;20282;-41
2021/08/07 00:14:41;;;;;;;;;;;;;;;23.00;61.66;98879.56;2085065;28;19908;-42
2021/08/07 00:15:41;;;;;;;;;;;;;;;23.00;61.79;98877.66;2084913;28;19920;-43
2021/08/07 00:16:41;;;;;;;;;;;;;;;22.99;61.77;98881.47;2083973;28;20608;-42
2021/08/07 00:17:42;;;;;;;;;;;;;;;22.99;61.69;98878.72;2085312;28;20142;-41
2021/08/07 00:18:43;;;;;;;;;;;;;;;22.99;61.57;98884.22;2080798;28;20362;-42
2021/08/07 00:19:43;;;;;;;;;;;;;;;22.99;61.70;98886.97;2085976;28;20384;-43
2021/08/07 00:20:43;;;;;;;;;;;;;;;23.00;61.72;98879.56;2084379;28;19951;-42
2021/08/07 00:21:44;;;;;;;;;;;;;;;23.00;61.71;98885.91;2084764;28;20324;-43
2021/08/07 00:22:44;;;;;;;;;;;;;;;22.99;61.79;98877.88;2085516;28;20622;-43
2021/08/07 00:23:44;;;;;;;;;;;;;;;22.99;61.78;98884.22;2084768;28;19924;-42
2021/08/07 00:24:45;;;;;;;;;;;;;;;22.99;61.81;98884.22;2083138;28;20310;-43
2021/08/07 00:25:45;;;;;;;;;;;;;;;23.00;61.58;98879.56;2083947;28;20149;-42
2021/08/07 00:26:45;;;;;;;;;;;;;;;22.99;61.78;98884.22;2091087;28;19916;-43
2021/08/07 00:27:46;;;;;;;;;;;;;;;22.99;61.78;98881.47;2085499;28;19927;-43
2021/08/07 00:28:46;;;;;;;;;;;;;;;22.99;61.65;98884.22;2084939;28;20385;-42
2021/08/07 00:29:46;;;;;;;;;;;;;;;22.98;61.70;98870.66;2085795;28;20291;-42
2021/08/07 00:30:46;;;;;;;;;;;;;;;22.97;61.59;98878.03;2084030;28;19916;-43
2021/08/07 00:31:47;;;;;;;;;;;;;;;22.98;61.62;98879.78;2085842;28;20334;-43
2021/08/07 00:32:47;;;;;;;;;;;;;;;22.98;61.62;98877.03;2081467;28;19909;-42
2021/08/07 00:33:47;;;;;;;;;;;;;;;22.99;61.73;98872.38;2080582;28;19961;-42
2021/08/07 00:34:48;;;;;;;;;;;;;;;22.98;61.78;98877.03;2085513;28;19940;-43
2021/08/07 00:35:48;;;;;;;;;;;;;;;22.98;61.77;98877.03;2084178;28;20226;-42
2021/08/07 00:36:49;;;;;;;;;;;;;;;22.98;61.69;98879.78;2083427;28;20230;-42
2021/08/07 00:37:49;;;;;;;;;;;;;;;22.98;61.67;98881.66;2085311;28;19916;-43
2021/08/07 00:38:49;;;;;;;;;;;;;;;22.97;61.72;98880.78;2086130;28;19966;-42
2021/08/07 00:39:50;;;;;;;;;;;;;;;22.97;61.68;98882.69;2086068;28;19951;-42
2021/08/07 00:40:51;;;;;;;;;;;;;;;22.97;61.74;98875.28;2083956;28;19917;-42
2021/08/07 00:41:51;;;;;;;;;;;;;;;22.97;61.69;98875.28;2086129;28;19916;-42
2021/08/07 00:42:52;;;;;;;;;;;;;;;22.97;61.73;98875.28;2087354;28;19917;-42
2021/08/07 00:43:52;;;;;;;;;;;;;;;22.97;61.84;98871.69;2081051;28;20362;-42
2021/08/07 00:44:52;;;;;;;;;;;;;;;22.97;61.72;98867.03;2086799;28;20498;-43
2021/08/07 00:45:53;;;;;;;;;;;;;;;22.97;61.61;98866.19;2083807;28;19917;-43
2021/08/07 00:46:53;;;;;;;;;;;;;;;22.96;61.66;98867.28;2082976;28;19908;-44
2021/08/07 00:47:53;;;;;;;;;;;;;;;22.97;61.79;98868.94;2084071;28;20901;-42
2021/08/07 00:48:54;;;;;;;;;;;;;;;22.96;61.73;98862.63;2084580;28;19908;-42
2021/08/07 00:49:54;;;;;;;;;;;;;;;22.96;61.68;98862.63;2087966;28;19920;-42
2021/08/07 00:50:54;;;;;;;;;;;;;;;22.96;61.70;98864.53;2084579;28;19916;-43
2021/08/07 00:51:55;;;;;;;;;;;;;;;22.96;61.64;98856.28;2084532;28;19962;-42
2021/08/07 00:52:55;;;;;;;;;;;;;;;22.95;61.62;98858.16;2084093;28;19977;-43
2021/08/07 00:53:56;;;;;;;;;;;;;;;22.96;61.81;98862.63;2085347;28;19959;-42
2021/08/07 00:54:57;;;;;;;;;;;;;;;22.96;61.61;98859.88;2083458;28;20339;-42
2021/08/07 00:55:58;;;;;;;;;;;;;;;22.95;61.68;98857.31;2084947;28;19916;-43
2021/08/07 00:56:58;;;;;;;;;;;;;;;22.96;61.64;98859.88;2084457;28;19920;-42
2021/08/07 00:57:59;;;;;;;;;;;;;;;22.95;61.76;98858.16;2085112;28;19954;-42
2021/08/07 00:58:59;;;;;;;;;;;;;;;22.95;61.86;98855.41;2084915;28;19927;-42
2021/08/07 01:00:00;;;;;;;;;;;;;;;22.93;61.79;98854.78;2085316;28;19955;-42
2021/08/07 01:01:07;;;;;;;;;;;;;;;22.95;61.77;98854.56;2085029;28;19912;-42
2021/08/07 01:02:15;;;;;;;;;;;;;;;22.95;61.70;98849.91;2081268;28;19999;-42
2021/08/07 01:03:36;;;;;;;;;;;;;;;22.95;61.62;98852.66;2081289;28;20415;-42
2021/08/07 01:04:42;;;;;;;;;;;;;;;22.94;61.83;98848.22;2082135;28;19938;-42
2021/08/07 01:05:45;;;;;;;;;;;;;;;22.95;61.78;98849.06;2084914;28;19917;-43
2021/08/07 01:06:51;;;;;;;;;;;;;;;22.94;61.84;98859.22;2084069;28;19986;-42
2021/08/07 01:07:57;;;;;;;;;;;;;;;22.95;61.71;98849.91;2084791;28;19916;-42
2021/08/07 01:09:05;;;;;;;;;;;;;;;22.93;61.86;98854.78;2084927;28;19932;-42
2021/08/07 01:10:18;;;;;;;;;;;;;;;22.93;61.61;98841.06;2084575;28;20031;-42
2021/08/07 01:11:18;;;;;;;;;;;;;;;22.94;61.75;98841.88;2081072;28;19958;-42
2021/08/07 01:12:22;;;;;;;;;;;;;;;22.93;61.64;98841.06;2084330;28;19923;-42
2021/08/07 01:13:28;;;;;;;;;;;;;;;22.93;61.63;98841.06;2084159;28;19916;-42
2021/08/07 01:14:36;;;;;;;;;;;;;;;22.93;61.71;98835.56;2085779;28;20817;-42
2021/08/07 01:15:38;;;;;;;;;;;;;;;22.93;61.61;98832.81;2084670;28;19908;-43
2021/08/07 01:16:42;;;;;;;;;;;;;;;22.94;61.71;98826.25;2084840;28;19909;-43
2021/08/07 01:17:43;;;;;;;;;;;;;;;22.94;61.68;98819.91;2084219;28;19978;-43
2021/08/07 01:18:46;;;;;;;;;;;;;;;22.93;61.64;98826.44;2083923;28;19973;-43
2021/08/07 01:19:49;;;;;;;;;;;;;;;22.92;61.78;98828.34;2084984;28;20035;-43
2021/08/07 01:20:51;;;;;;;;;;;;;;;22.93;61.71;98829.19;2084977;28;19917;-43
2021/08/07 01:21:58;;;;;;;;;;;;;;;22.92;61.81;98817.34;2085348;28;19916;-42
2021/08/07 01:22:58;;;;;;;;;;;;;;;22.93;61.75;98826.44;2083891;28;20015;-42
2021/08/07 01:24:02;;;;;;;;;;;;;;;22.92;61.77;98825.59;2085722;28;19920;-43
2021/08/07 01:25:04;;;;;;;;;;;;;;;22.92;61.65;98822.84;2084417;28;19990;-44
2021/08/07 01:26:12;;;;;;;;;;;;;;;22.93;61.67;98812.69;2084681;28;20264;-42
2021/08/07 01:27:12;;;;;;;;;;;;;;;22.92;61.75;98811.84;2081916;28;19974;-42
2021/08/07 01:28:13;;;;;;;;;;;;;;;22.92;61.61;98814.59;2081862;28;19923;-42
2021/08/07 01:29:15;;;;;;;;;;;;;;;22.92;61.72;98800.03;2085432;28;19931;-42
2021/08/07 01:30:17;;;;;;;;;;;;;;;22.90;61.68;98802.97;2083103;28;19920;-42
2021/08/07 01:31:18;;;;;;;;;;;;;;;22.92;61.74;98800.03;2081178;28;19908;-42
2021/08/07 01:32:22;;;;;;;;;;;;;;;22.92;61.59;98794.53;2083012;28;20585;-43
2021/08/07 01:33:25;;;;;;;;;;;;;;;22.91;61.72;98799.19;2083829;28;19920;-43
2021/08/07 01:34:26;;;;;;;;;;;;;;;22.90;61.50;98791.97;2086907;28;19912;-42
2021/08/07 01:35:26;;;;;;;;;;;;;;;22.90;61.56;98790.06;2082649;28;19920;-42
2021/08/07 01:36:27;;;;;;;;;;;;;;;22.91;61.63;98793.69;2085645;28;19935;-42
2021/08/07 01:37:27;;;;;;;;;;;;;;;22.91;61.64;98785.44;2083570;28;19959;-42
2021/08/07 01:38:28;;;;;;;;;;;;;;;22.92;61.53;98787.13;2084478;28;19913;-42
2021/08/07 01:39:28;;;;;;;;;;;;;;;22.92;61.63;98778.88;2085295;28;19993;-42
2021/08/07 01:40:28;;;;;;;;;;;;;;;22.92;61.67;98776.13;2083543;28;19912;-42
2021/08/07 01:41:29;;;;;;;;;;;;;;;22.92;61.57;98767.91;2079944;28;20361;-43
2021/08/07 01:42:29;;;;;;;;;;;;;;;22.90;61.65;98770.00;2086581;28;19916;-42
2021/08/07 01:43:29;;;;;;;;;;;;;;;22.90;61.72;98764.50;2082165;28;20454;-43
2021/08/07 01:44:30;;;;;;;;;;;;;;;22.90;61.74;98759.00;2084130;28;19989;-42
2021/08/07 01:45:30;;;;;;;;;;;;;;;22.89;61.58;98751.84;2084209;28;20354;-42
2021/08/07 01:46:42;;;;;;;;;;;;;;;22.90;61.59;98750.75;2084720;28;19912;-42
2021/08/07 01:48:00;;;;;;;;;;;;;;;22.90;61.59;98745.28;2082625;28;19966;-42
2021/08/07 01:49:13;;;;;;;;;;;;;;;22.90;61.71;98751.59;2083023;28;20215;-42
2021/08/07 01:50:16;;;;;;;;;;;;;;;22.90;61.67;98753.50;2077009;28;19912;-42
2021/08/07 01:51:18;;;;;;;;;;;;;;;22.90;61.66;98759.00;2084770;28;19916;-43
2021/08/07 01:52:22;;;;;;;;;;;;;;;22.90;61.65;98759.84;2084125;28;19916;-43
2021/08/07 01:53:25;;;;;;;;;;;;;;;22.90;61.62;98753.50;2084658;28;19917;-42
2021/08/07 01:54:27;;;;;;;;;;;;;;;22.91;61.64;98760.72;2076434;28;19974;-42
2021/08/07 01:55:34;;;;;;;;;;;;;;;22.91;61.66;98766.22;2075311;28;19916;-42
2021/08/07 01:56:37;;;;;;;;;;;;;;;22.90;61.64;98756.25;2081913;28;19916;-42
2021/08/07 01:57:40;;;;;;;;;;;;;;;22.91;61.63;98755.22;2079966;28;19920;-44
2021/08/07 01:58:49;;;;;;;;;;;;;;;22.91;61.50;98755.22;2084240;28;19985;-42
2021/08/07 01:59:51;;;;;;;;;;;;;;;22.90;61.50;98753.50;2085096;28;20701;-42
2021/08/07 02:00:52;;;;;;;;;;;;;;;22.90;61.60;98748.00;2083561;28;20146;-43
2021/08/07 02:01:53;;;;;;;;;;;;;;;22.91;61.63;98749.72;2084747;28;19974;-43
2021/08/07 02:02:53;;;;;;;;;;;;;;;22.90;61.38;98753.50;2084604;28;19920;-42
2021/08/07 02:03:54;;;;;;;;;;;;;;;22.90;61.49;98748.00;2084149;28;20172;-42
2021/08/07 02:04:57;;;;;;;;;;;;;;;22.90;61.61;98754.34;2084907;28;19912;-42
2021/08/07 02:05:58;;;;;;;;;;;;;;;22.91;61.64;98755.22;2084707;28;19909;-43
2021/08/07 02:06:58;;;;;;;;;;;;;;;22.90;61.48;98753.50;2083926;28;19908;-42
2021/08/07 02:08:00;;;;;;;;;;;;;;;22.91;61.55;98755.22;2086885;28;19944;-42
2021/08/07 02:09:01;;;;;;;;;;;;;;;22.88;61.66;98752.88;2087380;28;19933;-43
2021/08/07 02:10:03;;;;;;;;;;;;;;;22.89;61.63;98751.84;2084975;28;20844;-42
2021/08/07 02:11:03;;;;;;;;;;;;;;;22.90;61.55;98754.34;2078950;28;19924;-41
2021/08/07 02:12:05;;;;;;;;;;;;;;;22.90;61.58;98756.25;2084923;28;20340;-42
2021/08/07 02:13:06;;;;;;;;;;;;;;;22.90;61.47;98756.25;2084279;28;20042;-43
2021/08/07 02:14:07;;;;;;;;;;;;;;;22.90;61.56;98750.75;2085149;28;19920;-42
2021/08/07 02:15:08;;;;;;;;;;;;;;;22.90;61.60;98748.00;2084590;28;19959;-41
2021/08/07 02:16:09;;;;;;;;;;;;;;;22.88;61.60;98748.25;2083818;28;20409;-42
2021/08/07 02:17:09;;;;;;;;;;;;;;;22.89;61.58;98749.09;2082119;28;19920;-42
2021/08/07 02:18:11;;;;;;;;;;;;;;;22.89;61.43;98754.56;2084763;28;20724;-43
2021/08/07 02:19:12;;;;;;;;;;;;;;;22.89;61.52;98757.31;2084228;28;19917;-43
2021/08/07 02:20:14;;;;;;;;;;;;;;;22.89;61.42;98768.31;2084286;28;19916;-42
2021/08/07 02:21:15;;;;;;;;;;;;;;;22.89;61.59;98768.31;2084299;28;19927;-42
2021/08/07 02:22:17;;;;;;;;;;;;;;;22.88;61.59;98772.09;2084720;28;19916;-43
2021/08/07 02:23:17;;;;;;;;;;;;;;;22.88;61.56;98766.59;2083166;28;19979;-43
2021/08/07 02:24:18;;;;;;;;;;;;;;;22.88;61.64;98772.97;2084453;28;19916;-43
2021/08/07 02:25:19;;;;;;;;;;;;;;;22.89;61.64;98779.31;2084980;28;20260;-43
2021/08/07 02:26:21;;;;;;;;;;;;;;;22.90;61.52;98772.75;2082895;28;19922;-43
2021/08/07 02:27:21;;;;;;;;;;;;;;;22.90;61.47;98772.75;2082912;28;20515;-42
2021/08/07 02:28:21;;;;;;;;;;;;;;;22.90;61.49;98778.25;2083967;28;19947;-42
2021/08/07 02:29:22;;;;;;;;;;;;;;;22.89;61.47;98774.66;2081512;28;19923;-42
2021/08/07 02:30:23;;;;;;;;;;;;;;;22.89;61.49;98779.31;2084300;28;19920;-42
2021/08/07 02:31:24;;;;;;;;;;;;;;;22.88;61.49;98772.97;2079033;28;20360;-42
2021/08/07 02:32:24;;;;;;;;;;;;;;;22.88;61.60;98778.47;2083973;28;20007;-42
2021/08/07 02:33:25;;;;;;;;;;;;;;;22.88;61.56;98783.09;2085043;28;19935;-43
2021/08/07 02:34:27;;;;;;;;;;;;;;;22.88;61.52;98781.22;2083359;28;19916;-42
2021/08/07 02:35:27;;;;;;;;;;;;;;;22.88;61.53;98778.47;2084593;28;19913;-42
2021/08/07 02:36:29;;;;;;;;;;;;;;;22.88;61.54;98783.09;2083823;28;20761;-42
2021/08/07 02:37:29;;;;;;;;;;;;;;;22.90;61.67;98789.22;2083432;28;20014;-43
2021/08/07 02:38:31;;;;;;;;;;;;;;;22.88;61.59;98783.97;2085280;28;19983;-42
2021/08/07 02:39:32;;;;;;;;;;;;;;;22.87;61.70;98781.41;2085803;28;20333;-42
2021/08/07 02:40:33;;;;;;;;;;;;;;;22.87;61.57;98786.91;2084931;28;19919;-41
2021/08/07 02:41:34;;;;;;;;;;;;;;;22.88;61.60;98794.06;2086195;28;20338;-42
2021/08/07 02:42:34;;;;;;;;;;;;;;;22.87;61.60;98787.75;2085200;28;19913;-41
2021/08/07 02:43:35;;;;;;;;;;;;;;;22.87;61.66;98781.41;2087191;28;19928;-42
2021/08/07 02:44:36;;;;;;;;;;;;;;;22.87;61.45;98787.75;2083663;28;19921;-42
2021/08/07 02:45:37;;;;;;;;;;;;;;;22.88;61.56;98785.84;2080821;28;20661;-43
2021/08/07 02:46:38;;;;;;;;;;;;;;;22.87;61.46;98786.91;2084988;28;19919;-42
2021/08/07 02:47:39;;;;;;;;;;;;;;;22.87;61.46;98792.41;2081436;28;19966;-43
2021/08/07 02:48:40;;;;;;;;;;;;;;;22.88;61.51;98794.06;2080457;28;19962;-43
2021/08/07 02:49:40;;;;;;;;;;;;;;;22.87;61.58;98797.91;2083894;28;19920;-43
2021/08/07 02:50:41;;;;;;;;;;;;;;;22.86;61.49;98786.06;2085607;28;20410;-42
2021/08/07 02:51:42;;;;;;;;;;;;;;;22.87;61.57;98786.91;2084068;28;19917;-43
2021/08/07 02:52:44;;;;;;;;;;;;;;;22.86;61.54;98786.06;2084313;28;19989;-42
2021/08/07 02:53:44;;;;;;;;;;;;;;;22.87;61.44;98784.16;2086858;28;19913;-42
2021/08/07 02:54:45;;;;;;;;;;;;;;;22.87;61.46;98778.66;2085440;28;19915;-42
2021/08/07 02:55:45;;;;;;;;;;;;;;;22.87;61.47;98778.66;2083404;28;19955;-42
2021/08/07 02:56:46;;;;;;;;;;;;;;;22.86;61.40;98779.72;2081593;28;19917;-43
2021/08/07 02:57:47;;;;;;;;;;;;;;;22.86;61.61;98774.22;2083932;28;19920;-43
2021/08/07 02:58:47;;;;;;;;;;;;;;;22.86;61.59;98769.56;2085326;28;20061;-43
2021/08/07 02:59:47;;;;;;;;;;;;;;;22.86;61.55;98768.75;2086736;28;19966;-43
2021/08/07 03:00:47;;;;;;;;;;;;;;;22.86;61.60;98766.84;2084462;28;20351;-44
2021/08/07 03:01:48;;;;;;;;;;;;;;;22.85;61.64;98756.88;2085686;28;19948;-43
2021/08/07 03:02:48;;;;;;;;;;;;;;;22.86;61.56;98760.50;2085404;28;20592;-43
2021/08/07 03:03:48;;;;;;;;;;;;;;;22.86;61.56;98763.25;2083146;28;19924;-42
2021/08/07 03:04:49;;;;;;;;;;;;;;;22.86;61.77;98757.75;2085729;28;19924;-43
2021/08/07 03:05:49;;;;;;;;;;;;;;;22.86;61.63;98753.09;2084382;28;19916;-44
2021/08/07 03:06:49;;;;;;;;;;;;;;;22.86;61.43;98758.59;2083764;28;20868;-43
2021/08/07 03:07:50;;;;;;;;;;;;;;;22.86;61.66;98760.50;2080912;28;20364;-43
2021/08/07 03:08:50;;;;;;;;;;;;;;;22.86;61.57;98764.09;2083107;28;19947;-43
2021/08/07 03:09:50;;;;;;;;;;;;;;;22.87;61.57;98753.94;2085960;28;19923;-42
2021/08/07 03:10:52;;;;;;;;;;;;;;;22.85;61.56;98756.88;2084976;28;20298;-42
2021/08/07 03:11:52;;;;;;;;;;;;;;;22.86;61.50;98760.50;2084777;28;19920;-43
2021/08/07 03:12:53;;;;;;;;;;;;;;;22.86;61.59;98755.00;2085931;28;19917;-43
2021/08/07 03:13:53;;;;;;;;;;;;;;;22.86;61.48;98757.75;2085401;28;19938;-43
2021/08/07 03:14:53;;;;;;;;;;;;;;;22.86;61.58;98757.75;2085974;28;20315;-42
2021/08/07 03:15:54;;;;;;;;;;;;;;;22.86;61.51;98749.50;2083392;28;19935;-42
2021/08/07 03:16:54;;;;;;;;;;;;;;;22.86;61.52;98744.00;2084631;28;19920;-42
2021/08/07 03:17:55;;;;;;;;;;;;;;;22.86;61.60;98749.50;2084449;28;19927;-42
2021/08/07 03:18:55;;;;;;;;;;;;;;;22.85;61.56;98743.13;2085066;28;20582;-43
2021/08/07 03:19:55;;;;;;;;;;;;;;;22.85;61.46;98745.03;2085366;28;19920;-42
2021/08/07 03:20:57;;;;;;;;;;;;;;;22.86;61.43;98746.75;2084420;28;19920;-42
2021/08/07 03:21:57;;;;;;;;;;;;;;;22.85;61.53;98745.03;2094390;28;19916;-42
2021/08/07 03:22:59;;;;;;;;;;;;;;;22.85;61.44;98734.06;2085931;28;20299;-43
2021/08/07 03:24:00;;;;;;;;;;;;;;;22.85;61.60;98745.03;2086164;28;20015;-43
2021/08/07 03:25:00;;;;;;;;;;;;;;;22.85;61.52;98740.38;2085141;28;19908;-42
2021/08/07 03:26:00;;;;;;;;;;;;;;;22.85;61.48;98731.31;2085145;28;19923;-41
2021/08/07 03:27:00;;;;;;;;;;;;;;;22.85;61.53;98728.56;2085166;28;20435;-43
2021/08/07 03:28:01;;;;;;;;;;;;;;;22.85;61.51;98728.56;2083637;28;19931;-43
2021/08/07 03:29:02;;;;;;;;;;;;;;;22.85;61.66;98739.56;2086407;28;20286;-42
2021/08/07 03:30:02;;;;;;;;;;;;;;;22.84;61.65;98732.38;2086751;28;19943;-42
2021/08/07 03:31:03;;;;;;;;;;;;;;;22.85;61.39;98734.06;2088408;28;19924;-42
2021/08/07 03:32:03;;;;;;;;;;;;;;;22.84;61.52;98729.63;2085527;28;19920;-42
2021/08/07 03:33:04;;;;;;;;;;;;;;;22.84;61.40;98733.22;2083683;28;19923;-42
2021/08/07 03:34:04;;;;;;;;;;;;;;;22.85;61.47;98731.31;2082371;28;20009;-42
2021/08/07 03:35:05;;;;;;;;;;;;;;;22.85;61.53;98729.41;2085369;28;19970;-42
2021/08/07 03:36:06;;;;;;;;;;;;;;;22.84;61.70;98724.97;2084058;28;19970;-43
2021/08/07 03:37:06;;;;;;;;;;;;;;;22.85;61.60;98725.81;2085661;28;19923;-43
2021/08/07 03:38:06;;;;;;;;;;;;;;;22.85;61.58;98717.56;2081701;28;19967;-42
2021/08/07 03:39:07;;;;;;;;;;;;;;;22.84;61.71;98718.63;2086406;28;20394;-42
2021/08/07 03:40:07;;;;;;;;;;;;;;;22.84;61.57;98710.41;2086476;28;20694;-42
2021/08/07 03:41:08;;;;;;;;;;;;;;;22.85;61.53;98712.06;2083934;28;19916;-42
2021/08/07 03:42:08;;;;;;;;;;;;;;;22.85;61.45;98714.81;2085459;28;19921;-42
2021/08/07 03:43:08;;;;;;;;;;;;;;;22.83;61.41;98712.31;2086021;28;19919;-42
2021/08/07 03:44:08;;;;;;;;;;;;;;;22.84;61.48;98704.91;2085964;28;19916;-42
2021/08/07 03:45:09;;;;;;;;;;;;;;;22.83;61.60;98700.44;2086781;28;20183;-42
2021/08/07 03:46:09;;;;;;;;;;;;;;;22.83;61.43;98706.81;2081778;28;19961;-42
2021/08/07 03:47:11;;;;;;;;;;;;;;;22.84;61.61;98710.41;2085836;28;19979;-42
2021/08/07 03:48:12;;;;;;;;;;;;;;;22.84;61.58;98713.97;2084561;28;20530;-43
2021/08/07 03:49:12;;;;;;;;;;;;;;;22.84;61.63;98708.50;2085513;28;19916;-42
2021/08/07 03:50:13;;;;;;;;;;;;;;;22.84;61.48;98700.25;2084312;28;19966;-43
2021/08/07 03:51:13;;;;;;;;;;;;;;;22.84;61.48;98707.66;2083748;28;19924;-43
2021/08/07 03:52:14;;;;;;;;;;;;;;;22.84;61.55;98702.16;2085977;28;19974;-43
2021/08/07 03:53:14;;;;;;;;;;;;;;;22.84;61.40;98699.41;2084845;28;19912;-43
2021/08/07 03:54:15;;;;;;;;;;;;;;;22.83;61.46;98697.69;2085262;28;19916;-42
2021/08/07 03:55:15;;;;;;;;;;;;;;;22.83;61.47;98704.06;2085594;28;19912;-41
2021/08/07 03:56:15;;;;;;;;;;;;;;;22.84;61.56;98696.66;2083103;28;20509;-42
2021/08/07 03:57:16;;;;;;;;;;;;;;;22.83;61.64;98704.06;2086830;28;19913;-42
2021/08/07 03:58:16;;;;;;;;;;;;;;;22.82;61.50;98690.53;2084173;28;19920;-43
2021/08/07 03:59:16;;;;;;;;;;;;;;;22.84;61.64;98699.41;2085302;28;20019;-42
2021/08/07 04:00:17;;;;;;;;;;;;;;;22.83;61.54;98689.47;2085948;28;19958;-43
2021/08/07 04:01:18;;;;;;;;;;;;;;;22.82;61.62;98691.38;2086124;28;20320;-43
2021/08/07 04:02:18;;;;;;;;;;;;;;;22.83;61.56;98693.06;2085554;28;19908;-42
2021/08/07 04:03:18;;;;;;;;;;;;;;;22.83;61.41;98690.31;2084869;28;19963;-43
2021/08/07 04:04:19;;;;;;;;;;;;;;;22.83;61.49;98694.94;2085007;28;20034;-42
2021/08/07 04:05:19;;;;;;;;;;;;;;;22.83;61.56;98703.19;2084282;28;19920;-42
2021/08/07 04:06:20;;;;;;;;;;;;;;;22.82;61.59;98694.09;2084589;28;20376;-42
2021/08/07 04:07:20;;;;;;;;;;;;;;;22.83;61.66;98703.19;2084474;28;20705;-43
2021/08/07 04:08:21;;;;;;;;;;;;;;;22.83;61.48;98700.44;2078975;28;20191;-42
2021/08/07 04:09:21;;;;;;;;;;;;;;;22.83;61.50;98700.44;2085295;28;19925;-42
2021/08/07 04:10:21;;;;;;;;;;;;;;;22.83;61.51;98697.69;2090395;28;20218;-43
2021/08/07 04:11:22;;;;;;;;;;;;;;;22.83;61.53;98697.69;2085714;28;19917;-43
2021/08/07 04:12:22;;;;;;;;;;;;;;;22.82;61.63;98698.75;2083197;28;19917;-43
2021/08/07 04:13:22;;;;;;;;;;;;;;;22.82;61.49;98701.50;2086811;28;20732;-43
2021/08/07 04:14:23;;;;;;;;;;;;;;;22.81;61.52;98699.84;2084457;28;20248;-42
2021/08/07 04:15:23;;;;;;;;;;;;;;;22.82;61.54;98696.03;2085434;28;20684;-42
2021/08/07 04:16:23;;;;;;;;;;;;;;;22.81;61.52;98699.84;2082054;28;20271;-43
2021/08/07 04:17:24;;;;;;;;;;;;;;;22.81;61.65;98706.16;2087171;28;19961;-42
2021/08/07 04:18:24;;;;;;;;;;;;;;;22.83;61.53;98705.94;2085168;28;19998;-42
2021/08/07 04:19:24;;;;;;;;;;;;;;;22.83;61.41;98709.56;2084852;28;19916;-42
2021/08/07 04:20:24;;;;;;;;;;;;;;;22.83;61.51;98697.69;2085337;28;19978;-42
2021/08/07 04:21:25;;;;;;;;;;;;;;;22.83;61.57;98708.69;2087829;28;20533;-42
2021/08/07 04:22:25;;;;;;;;;;;;;;;22.81;61.57;98705.31;2086161;28;19951;-42
2021/08/07 04:23:25;;;;;;;;;;;;;;;22.82;61.62;98701.50;2084266;28;20652;-42
2021/08/07 04:24:26;;;;;;;;;;;;;;;22.81;61.66;98706.16;2083354;28;19963;-43
2021/08/07 04:25:26;;;;;;;;;;;;;;;22.82;61.58;98707.00;2087192;28;19951;-42
2021/08/07 04:26:26;;;;;;;;;;;;;;;22.82;61.64;98707.84;2082177;28;19998;-42
2021/08/07 04:27:27;;;;;;;;;;;;;;;22.83;61.47;98709.56;2084987;28;19921;-43
2021/08/07 04:28:27;;;;;;;;;;;;;;;22.80;61.61;98709.09;2083456;28;19917;-43
2021/08/07 04:29:27;;;;;;;;;;;;;;;22.80;61.72;98709.09;2084127;28;19920;-42
2021/08/07 04:30:28;;;;;;;;;;;;;;;22.82;61.70;98707.00;2085552;28;19916;-43
2021/08/07 04:31:28;;;;;;;;;;;;;;;22.83;61.49;98714.19;2081739;28;19917;-43
2021/08/07 04:32:28;;;;;;;;;;;;;;;22.81;61.50;98706.16;2085673;28;19916;-44
2021/08/07 04:33:28;;;;;;;;;;;;;;;22.82;61.56;98712.50;2086563;28;19963;-42
2021/08/07 04:34:29;;;;;;;;;;;;;;;22.81;61.66;98710.81;2083903;28;20309;-42
2021/08/07 04:35:29;;;;;;;;;;;;;;;22.82;61.72;98721.59;2086441;28;20043;-42
2021/08/07 04:36:30;;;;;;;;;;;;;;;22.81;61.67;98722.66;2081858;28;19969;-41
2021/08/07 04:37:30;;;;;;;;;;;;;;;22.82;61.72;98720.75;2085748;28;19966;-42
2021/08/07 04:38:31;;;;;;;;;;;;;;;22.81;61.56;98727.31;2083234;28;19916;-42
2021/08/07 04:39:32;;;;;;;;;;;;;;;22.80;61.70;98717.34;2083492;28;19969;-43
2021/08/07 04:40:32;;;;;;;;;;;;;;;22.80;61.60;98711.84;2086647;28;19951;-42
2021/08/07 04:41:32;;;;;;;;;;;;;;;22.79;61.68;98718.41;2082363;28;19953;-42
2021/08/07 04:42:33;;;;;;;;;;;;;;;22.80;61.73;98720.09;2085276;28;19921;-42
2021/08/07 04:43:34;;;;;;;;;;;;;;;22.80;61.81;98714.59;2086078;28;20410;-42
2021/08/07 04:44:35;;;;;;;;;;;;;;;22.80;61.61;98720.09;2082923;28;19935;-43
2021/08/07 04:45:35;;;;;;;;;;;;;;;22.78;61.75;98723.03;2084573;28;19916;-42
2021/08/07 04:46:35;;;;;;;;;;;;;;;22.80;61.68;98722.84;2083971;28;20609;-42
2021/08/07 04:47:36;;;;;;;;;;;;;;;22.80;61.79;98714.59;2085085;28;19908;-42
2021/08/07 04:48:36;;;;;;;;;;;;;;;22.80;61.67;98717.34;2083707;28;19962;-42
2021/08/07 04:49:37;;;;;;;;;;;;;;;22.81;61.59;98719.06;2084845;28;20340;-42
2021/08/07 04:50:37;;;;;;;;;;;;;;;22.80;61.75;98725.59;2085003;28;20409;-42
2021/08/07 04:51:37;;;;;;;;;;;;;;;22.79;61.61;98723.91;2085068;28;19916;-43
2021/08/07 04:52:38;;;;;;;;;;;;;;;22.79;61.52;98718.41;2086411;28;20368;-42
2021/08/07 04:53:38;;;;;;;;;;;;;;;22.79;61.66;98723.91;2083146;28;19927;-43
2021/08/07 04:54:38;;;;;;;;;;;;;;;22.80;61.57;98728.34;2084424;28;19920;-43
2021/08/07 04:55:39;;;;;;;;;;;;;;;22.80;61.53;98728.34;2085239;28;19916;-42
2021/08/07 04:56:39;;;;;;;;;;;;;;;22.79;61.66;98727.50;2082902;28;19924;-42
2021/08/07 04:57:39;;;;;;;;;;;;;;;22.78;61.55;98728.53;2085143;28;20326;-43
2021/08/07 04:58:40;;;;;;;;;;;;;;;22.78;61.62;98728.53;2084312;28;19924;-42
2021/08/07 04:59:40;;;;;;;;;;;;;;;22.79;61.60;98729.41;2084093;28;20287;-43
2021/08/07 05:00:41;;;;;;;;;;;;;;;22.79;61.51;98734.91;2081288;28;20019;-43
2021/08/07 05:01:41;;;;;;;;;;;;;;;22.80;61.66;98731.09;2081621;28;20043;-42
2021/08/07 05:02:41;;;;;;;;;;;;;;;22.79;61.70;98726.66;2081664;28;19920;-42
2021/08/07 05:03:42;;;;;;;;;;;;;;;22.78;61.82;98738.69;2082464;28;19917;-43
2021/08/07 05:04:42;;;;;;;;;;;;;;;22.78;61.80;98744.19;2080912;28;19940;-43
2021/08/07 05:05:42;;;;;;;;;;;;;;;22.78;61.59;98735.94;2081975;28;19920;-44
2021/08/07 05:06:46;;;;;;;;;;;;;;;22.78;61.63;98744.19;2084063;28;20001;-42
2021/08/07 05:07:49;;;;;;;;;;;;;;;22.77;61.75;98739.75;2084107;28;19920;-42
2021/08/07 05:08:49;;;;;;;;;;;;;;;22.77;61.61;98742.50;2083517;28;19973;-44
2021/08/07 05:09:50;;;;;;;;;;;;;;;22.76;61.67;98744.41;2085871;28;20742;-42
2021/08/07 05:10:50;;;;;;;;;;;;;;;22.77;61.56;98737.00;2082850;28;20253;-43
2021/08/07 05:11:50;;;;;;;;;;;;;;;22.78;61.72;98749.66;2082162;28;20790;-44
2021/08/07 05:12:51;;;;;;;;;;;;;;;22.78;61.66;98738.69;2081194;28;19917;-42
2021/08/07 05:13:51;;;;;;;;;;;;;;;22.78;61.54;98744.19;2085190;28;20220;-43
2021/08/07 05:14:51;;;;;;;;;;;;;;;22.77;61.74;98742.50;2078048;28;19970;-43
2021/08/07 05:15:52;;;;;;;;;;;;;;;22.76;61.70;98744.41;2081705;28;19916;-43
2021/08/07 05:16:52;;;;;;;;;;;;;;;22.77;61.77;98742.50;2083717;28;19997;-44
2021/08/07 05:17:54;;;;;;;;;;;;;;;22.78;61.71;98741.44;2081792;28;19963;-42
2021/08/07 05:18:54;;;;;;;;;;;;;;;22.76;61.57;98746.28;2083330;28;20025;-43